Portada
METAR-TAF:

METAR-TAF

Aeropuertos :

Aeropuerto de Saint Denis-Roland Garros

Saint-Denis, Reunión

latitud: 20-53S, longitud: 055-31E, altitud: 21 m

Observación

El informe se hizo hace 15 minutos, a las 01:30 UTC
Viento 8 kt del sureste
Temperatura 21°C
Humedad 78%
Presión 1022 hPa
Visibilidad 10 km o más
Escasas nubes a una altura de 2200 ft

METAR: FMEE 250130Z AUTO 13008KT 9999 FEW022 21/17 Q1022 NOSIG

Hora: 05:45 (01:45 UTC)

Pronóstico

El informe se hizo hace 2 horas y 45 minutos, a las 23:00 UTC
Pronóstico válido del 25 a las 00 UTC al 26 a las 06 UTC
Viento 12 kt del este-sureste
Visibilidad 10 km o más
Escasas nubes a una altura de 3000 ft
Nubes dispersas a una altura de 5000 ft
Temporalmente
del 25 a las 06 UTC al 25 a las 14 UTC
Viento 15 kt del este-sureste con ráfagas de 25 kt

TAF: FMEE 242300Z 2500/2606 11012KT 9999 FEW030 SCT050 TEMPO 2506/2514 11015G25KT

Observaciones y pronósticos meteorológicos de más de 4000 aeropuertos (mensajes METAR y TAF).

Los puntos amarillos y rojos representan las estaciones disponibles.

Ponga el ratón en el punto deseado para ver el nombre de la estación.

Haga clic para ver las observaciones y los pronósticos meteorológicos.

Para cambiar el mapa : haga clic en los botones verdes con una cruz de color negro para hacer un zoom, en el botón verde con un guión para alejar o en las flechas verdes para mapas adyacentes.


METAR-TAF: